AVA1689 SEGS-SEQM
Flight info
| Callsign | AVA1689 |
|---|---|
| Flight time | 2h 14m |
| Altitude | 39000 |
| Route | REDUS UT21 MIDEX DCT LUVPU DCT ILPEX |
| Aircraft | A319/M-SDE3FGHIRWY/LB1 |
Departure
| Time | 2026-05-07 00:23 |
|---|---|
| Airport | Seymour Galapagos Ecological Airport (SEGS) |
Arrival
| Time | 2026-05-07 02:38 |
|---|---|
| Airport | Mariscal Sucre International Airport (SEQM) |
| Time | Latitude | Longitude | Altitude | Speed | Heading |
|---|---|---|---|---|---|
| 2026-05-07 00:00 | -0.44586 | -90.26994 | 134 ft | 0 kts | 83° |
| 2026-05-07 00:17 | -0.44588 | -90.27008 | 139 ft | 4 kts | 49° |
| 2026-05-07 00:18 | -0.44609 | -90.27015 | 139 ft | 4 kts | 353° |
| 2026-05-07 00:18 | -0.44614 | -90.27015 | 141 ft | 0 kts | 351° |
| 2026-05-07 00:19 | -0.44606 | -90.27017 | 137 ft | 5 kts | 345° |
| 2026-05-07 00:20 | -0.44561 | -90.27047 | 138 ft | 10 kts | 322° |
| 2026-05-07 00:20 | -0.44494 | -90.27099 | 135 ft | 14 kts | 322° |
| 2026-05-07 00:20 | -0.44486 | -90.27197 | 133 ft | 17 kts | 233° |
| 2026-05-07 00:20 | -0.44527 | -90.27206 | 133 ft | 4 kts | 147° |
| 2026-05-07 00:21 | -0.44529 | -90.27204 | 134 ft | 0 kts | 147° |
| 2026-05-07 00:22 | -0.44532 | -90.27202 | 135 ft | 3 kts | 147° |
| 2026-05-07 00:22 | -0.44759 | -90.27042 | 143 ft | 80 kts | 143° |
| 2026-05-07 00:23 | -0.45385 | -90.26583 | 161 ft | 141 kts | 144° |
| 2026-05-07 00:23 | -0.46284 | -90.25949 | 494 ft | 164 kts | 144° |
| 2026-05-07 00:23 | -0.47205 | -90.25279 | 1261 ft | 164 kts | 146° |
| 2026-05-07 00:23 | -0.48129 | -90.24611 | 2059 ft | 164 kts | 146° |
| 2026-05-07 00:24 | -0.48930 | -90.23756 | 2566 ft | 184 kts | 119° |
| 2026-05-07 00:24 | -0.49211 | -90.22426 | 2964 ft | 210 kts | 91° |
| 2026-05-07 00:24 | -0.49257 | -90.20875 | 3371 ft | 237 kts | 98° |
| 2026-05-07 00:24 | -0.49523 | -90.19151 | 3767 ft | 266 kts | 101° |
| 2026-05-07 00:25 | -0.49816 | -90.17310 | 4244 ft | 273 kts | 100° |
| 2026-05-07 00:25 | -0.50071 | -90.15419 | 4736 ft | 276 kts | 94° |
| 2026-05-07 00:25 | -0.49939 | -90.13501 | 5206 ft | 280 kts | 83° |
| 2026-05-07 00:25 | -0.49654 | -90.11573 | 5693 ft | 281 kts | 82° |
| 2026-05-07 00:26 | -0.49366 | -90.09648 | 6185 ft | 281 kts | 82° |
| 2026-05-07 00:26 | -0.49073 | -90.07712 | 6654 ft | 282 kts | 82° |
| 2026-05-07 00:26 | -0.48778 | -90.05772 | 7120 ft | 282 kts | 82° |
| 2026-05-07 00:26 | -0.48485 | -90.03829 | 7599 ft | 283 kts | 82° |
| 2026-05-07 00:27 | -0.48192 | -90.01884 | 8068 ft | 283 kts | 82° |
| 2026-05-07 00:27 | -0.47901 | -89.99945 | 8559 ft | 283 kts | 82° |
| 2026-05-07 00:27 | -0.47609 | -89.97991 | 9044 ft | 285 kts | 82° |
| 2026-05-07 00:27 | -0.47316 | -89.96028 | 9544 ft | 287 kts | 82° |
| 2026-05-07 00:28 | -0.47022 | -89.94048 | 10022 ft | 294 kts | 82° |
| 2026-05-07 00:28 | -0.46711 | -89.91955 | 10445 ft | 315 kts | 82° |
| 2026-05-07 00:28 | -0.46378 | -89.89719 | 10824 ft | 336 kts | 82° |
| 2026-05-07 00:28 | -0.46019 | -89.87340 | 11201 ft | 355 kts | 82° |
| 2026-05-07 00:29 | -0.45643 | -89.84847 | 11595 ft | 371 kts | 82° |
| 2026-05-07 00:29 | -0.45254 | -89.82245 | 11984 ft | 385 kts | 82° |
| 2026-05-07 00:30 | -0.44247 | -89.74041 | 13168 ft | 404 kts | 88° |
| 2026-05-07 00:30 | -0.44146 | -89.71237 | 13573 ft | 406 kts | 88° |
| 2026-05-07 00:30 | -0.44043 | -89.68405 | 13948 ft | 408 kts | 88° |
| 2026-05-07 00:30 | -0.43943 | -89.65568 | 14311 ft | 410 kts | 89° |
| 2026-05-07 00:31 | -0.43843 | -89.62759 | 14678 ft | 411 kts | 89° |
| 2026-05-07 00:31 | -0.43740 | -89.59898 | 15042 ft | 413 kts | 89° |
| 2026-05-07 00:31 | -0.43639 | -89.57021 | 15419 ft | 414 kts | 89° |
| 2026-05-07 00:31 | -0.43539 | -89.54137 | 15798 ft | 416 kts | 89° |
| 2026-05-07 00:32 | -0.43437 | -89.51242 | 16184 ft | 418 kts | 89° |
| 2026-05-07 00:32 | -0.43335 | -89.48334 | 16574 ft | 420 kts | 89° |
| 2026-05-07 00:32 | -0.43230 | -89.45407 | 16970 ft | 422 kts | 89° |
| 2026-05-07 00:32 | -0.43123 | -89.42474 | 17370 ft | 424 kts | 89° |
| 2026-05-07 00:33 | -0.43018 | -89.39529 | 17771 ft | 426 kts | 89° |
| 2026-05-07 00:33 | -0.42914 | -89.36567 | 18182 ft | 428 kts | 89° |
| 2026-05-07 00:33 | -0.42805 | -89.33587 | 18536 ft | 430 kts | 88° |
| 2026-05-07 00:33 | -0.42695 | -89.30589 | 18895 ft | 433 kts | 88° |
| 2026-05-07 00:34 | -0.42583 | -89.27574 | 19254 ft | 436 kts | 88° |
| 2026-05-07 00:34 | -0.42472 | -89.24542 | 19619 ft | 438 kts | 88° |
| 2026-05-07 00:34 | -0.42365 | -89.21490 | 19991 ft | 441 kts | 88° |
| 2026-05-07 00:34 | -0.42260 | -89.18422 | 20361 ft | 443 kts | 88° |
| 2026-05-07 00:35 | -0.42154 | -89.15334 | 20741 ft | 446 kts | 88° |
| 2026-05-07 00:35 | -0.42042 | -89.12229 | 21123 ft | 448 kts | 88° |
| 2026-05-07 00:35 | -0.41928 | -89.09118 | 21510 ft | 450 kts | 88° |
| 2026-05-07 00:35 | -0.41811 | -89.05983 | 21906 ft | 451 kts | 88° |
| 2026-05-07 00:36 | -0.41695 | -89.02847 | 22301 ft | 452 kts | 88° |
| 2026-05-07 00:36 | -0.41582 | -88.99704 | 22707 ft | 454 kts | 88° |
| 2026-05-07 00:36 | -0.41471 | -88.96556 | 23112 ft | 455 kts | 88° |
| 2026-05-07 00:36 | -0.41360 | -88.93386 | 23518 ft | 456 kts | 88° |
| 2026-05-07 00:37 | -0.41248 | -88.90213 | 23865 ft | 457 kts | 88° |
| 2026-05-07 00:37 | -0.41132 | -88.87033 | 24213 ft | 458 kts | 88° |
| 2026-05-07 00:37 | -0.41013 | -88.83849 | 24563 ft | 459 kts | 87° |
| 2026-05-07 00:37 | -0.40894 | -88.80661 | 24918 ft | 460 kts | 87° |
| 2026-05-07 00:38 | -0.40777 | -88.77497 | 25220 ft | 462 kts | 87° |
| 2026-05-07 00:38 | -0.40659 | -88.74289 | 25514 ft | 463 kts | 87° |
| 2026-05-07 00:38 | -0.40539 | -88.71037 | 25817 ft | 463 kts | 87° |
| 2026-05-07 00:38 | -0.40426 | -88.67825 | 26117 ft | 463 kts | 87° |
| 2026-05-07 00:39 | -0.40315 | -88.64656 | 26417 ft | 462 kts | 87° |
| 2026-05-07 00:39 | -0.40202 | -88.61451 | 26724 ft | 462 kts | 87° |
| 2026-05-07 00:39 | -0.40088 | -88.58236 | 27029 ft | 462 kts | 87° |
| 2026-05-07 00:39 | -0.39972 | -88.55035 | 27348 ft | 462 kts | 87° |
| 2026-05-07 00:40 | -0.39856 | -88.51833 | 27671 ft | 461 kts | 87° |
| 2026-05-07 00:40 | -0.39740 | -88.48628 | 27992 ft | 461 kts | 87° |
| 2026-05-07 00:40 | -0.39623 | -88.45425 | 28318 ft | 460 kts | 87° |
| 2026-05-07 00:40 | -0.39509 | -88.42240 | 28647 ft | 459 kts | 87° |
| 2026-05-07 00:41 | -0.39395 | -88.39051 | 28981 ft | 459 kts | 87° |
| 2026-05-07 00:41 | -0.39283 | -88.35869 | 29320 ft | 458 kts | 87° |
| 2026-05-07 00:41 | -0.39169 | -88.32689 | 29661 ft | 458 kts | 87° |
| 2026-05-07 00:41 | -0.39058 | -88.29518 | 30000 ft | 458 kts | 87° |
| 2026-05-07 00:42 | -0.38947 | -88.26336 | 30294 ft | 457 kts | 87° |
| 2026-05-07 00:42 | -0.38832 | -88.23164 | 30587 ft | 457 kts | 87° |
| 2026-05-07 00:42 | -0.38715 | -88.19986 | 30885 ft | 457 kts | 87° |
| 2026-05-07 00:42 | -0.38595 | -88.16813 | 31186 ft | 457 kts | 87° |
| 2026-05-07 00:43 | -0.38476 | -88.13637 | 31482 ft | 456 kts | 87° |
| 2026-05-07 00:43 | -0.38361 | -88.10494 | 31793 ft | 453 kts | 87° |
| 2026-05-07 00:43 | -0.38246 | -88.07343 | 32110 ft | 455 kts | 87° |
| 2026-05-07 00:43 | -0.38128 | -88.04174 | 32429 ft | 457 kts | 87° |
| 2026-05-07 00:44 | -0.38011 | -88.01004 | 32746 ft | 458 kts | 87° |
| 2026-05-07 00:44 | -0.37895 | -87.97813 | 33069 ft | 458 kts | 87° |
| 2026-05-07 00:44 | -0.37784 | -87.94641 | 33395 ft | 458 kts | 87° |
| 2026-05-07 00:44 | -0.37673 | -87.91451 | 33726 ft | 459 kts | 87° |
| 2026-05-07 00:45 | -0.37562 | -87.88309 | 34036 ft | 459 kts | 87° |
| 2026-05-07 00:45 | -0.37448 | -87.85129 | 34323 ft | 459 kts | 86° |
| 2026-05-07 00:45 | -0.37333 | -87.81942 | 34617 ft | 459 kts | 86° |
| 2026-05-07 00:45 | -0.37219 | -87.78763 | 34910 ft | 458 kts | 86° |
| 2026-05-07 00:46 | -0.37106 | -87.75575 | 35216 ft | 458 kts | 86° |
| 2026-05-07 00:46 | -0.36990 | -87.72396 | 35521 ft | 458 kts | 86° |
| 2026-05-07 00:46 | -0.36872 | -87.69218 | 35827 ft | 458 kts | 86° |
| 2026-05-07 00:46 | -0.36755 | -87.66041 | 36137 ft | 457 kts | 86° |
| 2026-05-07 00:47 | -0.36644 | -87.62878 | 36454 ft | 457 kts | 86° |
| 2026-05-07 00:47 | -0.36532 | -87.59706 | 36773 ft | 456 kts | 86° |
| 2026-05-07 00:47 | -0.36419 | -87.56539 | 37101 ft | 455 kts | 86° |
| 2026-05-07 00:47 | -0.36306 | -87.53376 | 37437 ft | 455 kts | 86° |
| 2026-05-07 00:48 | -0.36194 | -87.50222 | 37763 ft | 454 kts | 86° |
| 2026-05-07 00:48 | -0.36080 | -87.47070 | 37906 ft | 454 kts | 86° |
| 2026-05-07 00:48 | -0.35859 | -87.40822 | 37928 ft | 448 kts | 86° |
| 2026-05-07 00:49 | -0.35633 | -87.34616 | 37931 ft | 446 kts | 86° |
| 2026-05-07 00:49 | -0.35412 | -87.28436 | 37930 ft | 444 kts | 86° |
| 2026-05-07 00:50 | -0.35194 | -87.22285 | 37931 ft | 443 kts | 86° |
| 2026-05-07 00:50 | -0.34970 | -87.16140 | 37933 ft | 443 kts | 86° |
| 2026-05-07 00:51 | -0.34749 | -87.09992 | 37933 ft | 443 kts | 86° |
| 2026-05-07 00:51 | -0.34532 | -87.03842 | 37935 ft | 443 kts | 86° |
| 2026-05-07 00:52 | -0.34309 | -86.97693 | 37937 ft | 443 kts | 86° |
| 2026-05-07 00:52 | -0.34087 | -86.91539 | 37951 ft | 443 kts | 85° |
| 2026-05-07 00:53 | -0.33869 | -86.85433 | 37951 ft | 442 kts | 86° |
| 2026-05-07 00:53 | -0.33646 | -86.79299 | 37951 ft | 441 kts | 85° |
| 2026-05-07 00:54 | -0.33418 | -86.73171 | 37953 ft | 441 kts | 85° |
| 2026-05-07 00:54 | -0.33195 | -86.67051 | 37952 ft | 441 kts | 85° |
| 2026-05-07 00:55 | -0.32978 | -86.60921 | 37949 ft | 441 kts | 86° |
| 2026-05-07 00:55 | -0.32764 | -86.54799 | 37949 ft | 441 kts | 86° |
| 2026-05-07 00:56 | -0.32547 | -86.48670 | 37953 ft | 441 kts | 86° |
| 2026-05-07 00:56 | -0.32321 | -86.42540 | 37951 ft | 442 kts | 85° |
| 2026-05-07 00:57 | -0.32099 | -86.36402 | 37952 ft | 442 kts | 86° |
| 2026-05-07 00:57 | -0.31882 | -86.30275 | 37951 ft | 442 kts | 85° |
| 2026-05-07 00:58 | -0.31656 | -86.24137 | 37948 ft | 442 kts | 85° |
| 2026-05-07 00:58 | -0.31435 | -86.18002 | 37953 ft | 442 kts | 86° |
| 2026-05-07 00:59 | -0.31106 | -86.08836 | 37939 ft | 443 kts | 86° |
| 2026-05-07 01:00 | -0.30885 | -86.02689 | 37938 ft | 443 kts | 86° |
| 2026-05-07 01:00 | -0.30663 | -85.96534 | 37940 ft | 443 kts | 86° |
| 2026-05-07 01:01 | -0.30445 | -85.90372 | 37943 ft | 443 kts | 86° |
| 2026-05-07 01:01 | -0.30220 | -85.84211 | 37945 ft | 443 kts | 86° |
| 2026-05-07 01:02 | -0.29994 | -85.78058 | 37947 ft | 443 kts | 86° |
| 2026-05-07 01:02 | -0.29808 | -85.72944 | 37946 ft | 443 kts | 86° |
| 2026-05-07 01:03 | -0.29585 | -85.66786 | 37943 ft | 443 kts | 86° |
| 2026-05-07 01:03 | -0.29365 | -85.60634 | 37943 ft | 443 kts | 86° |
| 2026-05-07 01:04 | -0.29149 | -85.54484 | 37947 ft | 443 kts | 86° |
| 2026-05-07 01:04 | -0.28926 | -85.48325 | 37945 ft | 443 kts | 86° |
| 2026-05-07 01:05 | -0.28698 | -85.42172 | 37945 ft | 443 kts | 86° |
| 2026-05-07 01:05 | -0.28478 | -85.36035 | 37956 ft | 442 kts | 86° |
| 2026-05-07 01:06 | -0.28262 | -85.29901 | 37959 ft | 441 kts | 86° |
| 2026-05-07 01:06 | -0.28045 | -85.23822 | 37959 ft | 441 kts | 86° |
| 2026-05-07 01:07 | -0.27821 | -85.17701 | 37960 ft | 440 kts | 86° |
| 2026-05-07 01:07 | -0.27598 | -85.11589 | 37959 ft | 441 kts | 86° |
| 2026-05-07 01:08 | -0.27376 | -85.05462 | 37955 ft | 440 kts | 86° |
| 2026-05-07 01:08 | -0.27155 | -84.99354 | 37962 ft | 439 kts | 86° |
| 2026-05-07 01:09 | -0.26939 | -84.93262 | 37961 ft | 438 kts | 86° |
| 2026-05-07 01:09 | -0.26718 | -84.87181 | 37959 ft | 438 kts | 86° |
| 2026-05-07 01:10 | -0.26497 | -84.81106 | 37962 ft | 438 kts | 86° |
| 2026-05-07 01:10 | -0.26282 | -84.75030 | 37961 ft | 437 kts | 86° |
| 2026-05-07 01:11 | -0.26069 | -84.68961 | 37957 ft | 437 kts | 86° |
| 2026-05-07 01:11 | -0.25851 | -84.62882 | 37950 ft | 438 kts | 85° |
| 2026-05-07 01:12 | -0.25631 | -84.56797 | 37943 ft | 438 kts | 85° |
| 2026-05-07 01:12 | -0.25411 | -84.50708 | 37944 ft | 439 kts | 85° |
| 2026-05-07 01:13 | -0.25187 | -84.44622 | 37946 ft | 439 kts | 85° |
| 2026-05-07 01:13 | -0.24967 | -84.38523 | 37947 ft | 439 kts | 85° |
| 2026-05-07 01:14 | -0.24750 | -84.32430 | 37947 ft | 439 kts | 85° |
| 2026-05-07 01:14 | -0.24538 | -84.26329 | 37945 ft | 439 kts | 85° |
| 2026-05-07 01:15 | -0.24319 | -84.20226 | 37950 ft | 440 kts | 85° |
| 2026-05-07 01:15 | -0.24095 | -84.14121 | 37948 ft | 440 kts | 85° |
| 2026-05-07 01:16 | -0.23880 | -84.08058 | 37949 ft | 440 kts | 85° |
| 2026-05-07 01:16 | -0.23674 | -84.01951 | 37949 ft | 440 kts | 85° |
| 2026-05-07 01:17 | -0.23448 | -83.95848 | 37948 ft | 440 kts | 85° |
| 2026-05-07 01:17 | -0.23218 | -83.89743 | 37950 ft | 440 kts | 85° |
| 2026-05-07 01:18 | -0.22991 | -83.83636 | 37946 ft | 440 kts | 85° |
| 2026-05-07 01:18 | -0.22784 | -83.77524 | 37944 ft | 440 kts | 85° |
| 2026-05-07 01:19 | -0.22566 | -83.71417 | 37948 ft | 440 kts | 85° |
| 2026-05-07 01:19 | -0.22343 | -83.65313 | 37949 ft | 440 kts | 85° |
| 2026-05-07 01:20 | -0.22120 | -83.59199 | 37948 ft | 440 kts | 85° |
| 2026-05-07 01:20 | -0.21898 | -83.53092 | 37948 ft | 440 kts | 86° |
| 2026-05-07 01:21 | -0.21674 | -83.46988 | 37942 ft | 440 kts | 85° |
| 2026-05-07 01:21 | -0.21455 | -83.40871 | 37942 ft | 440 kts | 86° |
| 2026-05-07 01:22 | -0.21238 | -83.34758 | 37943 ft | 440 kts | 86° |
| 2026-05-07 01:22 | -0.21025 | -83.28671 | 37944 ft | 440 kts | 86° |
| 2026-05-07 01:23 | -0.20804 | -83.22562 | 37944 ft | 440 kts | 85° |
| 2026-05-07 01:23 | -0.20579 | -83.16439 | 38069 ft | 442 kts | 85° |
| 2026-05-07 01:23 | -0.20471 | -83.13357 | 38281 ft | 444 kts | 86° |
| 2026-05-07 01:24 | -0.20365 | -83.10273 | 38499 ft | 444 kts | 86° |
| 2026-05-07 01:24 | -0.20257 | -83.07193 | 38694 ft | 443 kts | 86° |
| 2026-05-07 01:24 | -0.20148 | -83.04113 | 38870 ft | 443 kts | 86° |
| 2026-05-07 01:25 | -0.19927 | -82.97966 | 38961 ft | 443 kts | 86° |
| 2026-05-07 01:25 | -0.19709 | -82.91824 | 38959 ft | 442 kts | 86° |
| 2026-05-07 01:26 | -0.19473 | -82.85689 | 38956 ft | 442 kts | 86° |
| 2026-05-07 01:26 | -0.19250 | -82.79547 | 38959 ft | 442 kts | 86° |
| 2026-05-07 01:27 | -0.19033 | -82.73444 | 38961 ft | 442 kts | 86° |
| 2026-05-07 01:27 | -0.18815 | -82.67298 | 38966 ft | 442 kts | 86° |
| 2026-05-07 01:28 | -0.18592 | -82.61170 | 38958 ft | 442 kts | 86° |
| 2026-05-07 01:28 | -0.18371 | -82.55036 | 38956 ft | 442 kts | 86° |
| 2026-05-07 01:29 | -0.18154 | -82.48899 | 38963 ft | 442 kts | 86° |
| 2026-05-07 01:29 | -0.17932 | -82.42811 | 38964 ft | 442 kts | 86° |
| 2026-05-07 01:30 | -0.17713 | -82.36678 | 38954 ft | 442 kts | 87° |
| 2026-05-07 01:30 | -0.17485 | -82.30538 | 38962 ft | 442 kts | 87° |
| 2026-05-07 01:31 | -0.17259 | -82.24405 | 38962 ft | 442 kts | 87° |
| 2026-05-07 01:31 | -0.17037 | -82.18269 | 38962 ft | 442 kts | 87° |
| 2026-05-07 01:32 | -0.16826 | -82.12141 | 38964 ft | 442 kts | 87° |
| 2026-05-07 01:32 | -0.16605 | -82.06006 | 38963 ft | 442 kts | 87° |
| 2026-05-07 01:33 | -0.16382 | -81.99864 | 38962 ft | 442 kts | 87° |
| 2026-05-07 01:33 | -0.16159 | -81.93737 | 38963 ft | 442 kts | 87° |
| 2026-05-07 01:34 | -0.15930 | -81.87604 | 38969 ft | 442 kts | 87° |
| 2026-05-07 01:34 | -0.15715 | -81.81508 | 38970 ft | 442 kts | 87° |
| 2026-05-07 01:35 | -0.15494 | -81.75378 | 38966 ft | 442 kts | 87° |
| 2026-05-07 01:35 | -0.15272 | -81.69242 | 38965 ft | 442 kts | 87° |
| 2026-05-07 01:36 | -0.15047 | -81.63109 | 38970 ft | 442 kts | 87° |
| 2026-05-07 01:36 | -0.14820 | -81.56975 | 38974 ft | 442 kts | 87° |
| 2026-05-07 01:37 | -0.14599 | -81.50844 | 38970 ft | 442 kts | 87° |
| 2026-05-07 01:37 | -0.14383 | -81.44699 | 38970 ft | 442 kts | 87° |
| 2026-05-07 01:38 | -0.14163 | -81.38564 | 38971 ft | 442 kts | 87° |
| 2026-05-07 01:38 | -0.13949 | -81.32459 | 38973 ft | 442 kts | 87° |
| 2026-05-07 01:39 | -0.13726 | -81.26325 | 38972 ft | 442 kts | 88° |
| 2026-05-07 01:39 | -0.13503 | -81.20189 | 38972 ft | 442 kts | 88° |
| 2026-05-07 01:40 | -0.13281 | -81.14050 | 38980 ft | 442 kts | 88° |
| 2026-05-07 01:40 | -0.13062 | -81.07914 | 38980 ft | 441 kts | 88° |
| 2026-05-07 01:41 | -0.12843 | -81.01784 | 38977 ft | 441 kts | 88° |
| 2026-05-07 01:41 | -0.12618 | -80.95667 | 38976 ft | 441 kts | 88° |
| 2026-05-07 01:42 | -0.12393 | -80.89534 | 38957 ft | 441 kts | 88° |
| 2026-05-07 01:42 | -0.12177 | -80.83406 | 38952 ft | 442 kts | 88° |
| 2026-05-07 01:43 | -0.11998 | -80.78300 | 38952 ft | 442 kts | 89° |
| 2026-05-07 01:43 | -0.11751 | -80.71169 | 38938 ft | 442 kts | 88° |
| 2026-05-07 01:44 | -0.11524 | -80.65026 | 38944 ft | 442 kts | 88° |
| 2026-05-07 01:44 | -0.11294 | -80.58882 | 38937 ft | 443 kts | 88° |
| 2026-05-07 01:45 | -0.11078 | -80.52724 | 38932 ft | 443 kts | 89° |
| 2026-05-07 01:45 | -0.10857 | -80.46580 | 38938 ft | 443 kts | 89° |
| 2026-05-07 01:46 | -0.10630 | -80.40439 | 38937 ft | 442 kts | 89° |
| 2026-05-07 01:46 | -0.10412 | -80.34286 | 38938 ft | 442 kts | 89° |
| 2026-05-07 01:47 | -0.10196 | -80.28151 | 38968 ft | 442 kts | 89° |
| 2026-05-07 01:47 | -0.09976 | -80.22047 | 38967 ft | 442 kts | 89° |
| 2026-05-07 01:48 | -0.09753 | -80.15916 | 38990 ft | 441 kts | 88° |
| 2026-05-07 01:48 | -0.09530 | -80.09792 | 39000 ft | 440 kts | 89° |
| 2026-05-07 01:49 | -0.09310 | -80.03695 | 39002 ft | 439 kts | 89° |
| 2026-05-07 01:49 | -0.09092 | -79.97601 | 39029 ft | 438 kts | 89° |
| 2026-05-07 01:50 | -0.08876 | -79.91517 | 39024 ft | 438 kts | 88° |
| 2026-05-07 01:50 | -0.08656 | -79.85434 | 39048 ft | 437 kts | 88° |
| 2026-05-07 01:51 | -0.08437 | -79.79366 | 39048 ft | 437 kts | 88° |
| 2026-05-07 01:51 | -0.08258 | -79.74320 | 39015 ft | 438 kts | 88° |
| 2026-05-07 01:51 | -0.08111 | -79.70230 | 38195 ft | 443 kts | 88° |
| 2026-05-07 01:52 | -0.08038 | -79.68189 | 37897 ft | 441 kts | 88° |
| 2026-05-07 01:52 | -0.07928 | -79.65136 | 37415 ft | 438 kts | 88° |
| 2026-05-07 01:52 | -0.07817 | -79.62109 | 36933 ft | 436 kts | 88° |
| 2026-05-07 01:52 | -0.07705 | -79.59082 | 36416 ft | 435 kts | 88° |
| 2026-05-07 01:53 | -0.07595 | -79.56074 | 35937 ft | 433 kts | 88° |
| 2026-05-07 01:53 | -0.07486 | -79.53063 | 35387 ft | 433 kts | 88° |
| 2026-05-07 01:53 | -0.07378 | -79.50065 | 34850 ft | 433 kts | 88° |
| 2026-05-07 01:53 | -0.07271 | -79.47060 | 34288 ft | 433 kts | 88° |
| 2026-05-07 01:54 | -0.07167 | -79.44063 | 33702 ft | 432 kts | 88° |
| 2026-05-07 01:54 | -0.07062 | -79.41061 | 33189 ft | 430 kts | 88° |
| 2026-05-07 01:54 | -0.06957 | -79.38094 | 32653 ft | 427 kts | 88° |
| 2026-05-07 01:54 | -0.06852 | -79.35165 | 32123 ft | 425 kts | 88° |
| 2026-05-07 01:55 | -0.06747 | -79.32194 | 31585 ft | 423 kts | 88° |
| 2026-05-07 01:55 | -0.06641 | -79.29259 | 31059 ft | 420 kts | 88° |
| 2026-05-07 01:55 | -0.06538 | -79.26345 | 30577 ft | 418 kts | 88° |
| 2026-05-07 01:55 | -0.06437 | -79.23452 | 30023 ft | 416 kts | 88° |
| 2026-05-07 01:56 | -0.06337 | -79.20575 | 29493 ft | 412 kts | 88° |
| 2026-05-07 01:56 | -0.06236 | -79.17729 | 28997 ft | 407 kts | 88° |
| 2026-05-07 01:56 | -0.06060 | -79.14963 | 28522 ft | 403 kts | 82° |
| 2026-05-07 01:56 | -0.05452 | -79.12244 | 28084 ft | 399 kts | 73° |
| 2026-05-07 01:57 | -0.04562 | -79.09635 | 27624 ft | 396 kts | 72° |
| 2026-05-07 01:57 | -0.03672 | -79.07036 | 27174 ft | 392 kts | 72° |
| 2026-05-07 01:57 | -0.02797 | -79.04465 | 26725 ft | 390 kts | 72° |
| 2026-05-07 01:57 | -0.01929 | -79.01908 | 26281 ft | 387 kts | 72° |
| 2026-05-07 01:58 | -0.01068 | -78.99367 | 25841 ft | 385 kts | 72° |
| 2026-05-07 01:58 | -0.00210 | -78.96824 | 25388 ft | 385 kts | 72° |
| 2026-05-07 01:58 | 0.00643 | -78.94295 | 24865 ft | 384 kts | 72° |
| 2026-05-07 01:58 | 0.01510 | -78.91729 | 24080 ft | 393 kts | 72° |
| 2026-05-07 01:59 | 0.02385 | -78.89160 | 23517 ft | 388 kts | 72° |
| 2026-05-07 01:59 | 0.03245 | -78.86643 | 23000 ft | 379 kts | 72° |
| 2026-05-07 01:59 | 0.04088 | -78.84178 | 22509 ft | 370 kts | 72° |
| 2026-05-07 01:59 | 0.04907 | -78.81777 | 22063 ft | 362 kts | 72° |
| 2026-05-07 02:00 | 0.05711 | -78.79414 | 21591 ft | 358 kts | 72° |
| 2026-05-07 02:00 | 0.06506 | -78.77072 | 21124 ft | 355 kts | 72° |
| 2026-05-07 02:00 | 0.07297 | -78.74741 | 20661 ft | 352 kts | 72° |
| 2026-05-07 02:00 | 0.08082 | -78.72435 | 20203 ft | 350 kts | 72° |
| 2026-05-07 02:01 | 0.08864 | -78.70138 | 19744 ft | 348 kts | 72° |
| 2026-05-07 02:01 | 0.09642 | -78.67857 | 19326 ft | 346 kts | 72° |
| 2026-05-07 02:01 | 0.10416 | -78.65578 | 18864 ft | 345 kts | 72° |
| 2026-05-07 02:01 | 0.11178 | -78.63337 | 18364 ft | 345 kts | 72° |
| 2026-05-07 02:02 | 0.11948 | -78.61073 | 17848 ft | 343 kts | 72° |
| 2026-05-07 02:02 | 0.12720 | -78.58799 | 17377 ft | 339 kts | 73° |
| 2026-05-07 02:02 | 0.13115 | -78.56512 | 16912 ft | 333 kts | 92° |
| 2026-05-07 02:02 | 0.12643 | -78.54273 | 16494 ft | 329 kts | 114° |
| 2026-05-07 02:03 | 0.11397 | -78.52415 | 16344 ft | 318 kts | 133° |
| 2026-05-07 02:03 | 0.09646 | -78.51151 | 16099 ft | 316 kts | 151° |
| 2026-05-07 02:03 | 0.07670 | -78.50193 | 15801 ft | 315 kts | 152° |
| 2026-05-07 02:03 | 0.05701 | -78.49251 | 15533 ft | 313 kts | 153° |
| 2026-05-07 02:04 | 0.03740 | -78.48317 | 15276 ft | 311 kts | 153° |
| 2026-05-07 02:04 | 0.01790 | -78.47388 | 14979 ft | 309 kts | 153° |
| 2026-05-07 02:04 | -0.00146 | -78.46462 | 14719 ft | 308 kts | 153° |
| 2026-05-07 02:04 | -0.02100 | -78.45598 | 14508 ft | 306 kts | 159° |
| 2026-05-07 02:05 | -0.04132 | -78.44994 | 14116 ft | 309 kts | 166° |
| 2026-05-07 02:05 | -0.06302 | -78.44673 | 13274 ft | 319 kts | 173° |
| 2026-05-07 02:05 | -0.08509 | -78.44464 | 12689 ft | 321 kts | 174° |
| 2026-05-07 02:05 | -0.10698 | -78.44251 | 12366 ft | 309 kts | 173° |
| 2026-05-07 02:06 | -0.12843 | -78.44037 | 11812 ft | 312 kts | 173° |
| 2026-05-07 02:06 | -0.14997 | -78.43793 | 11377 ft | 310 kts | 168° |
| 2026-05-07 02:06 | -0.17005 | -78.43037 | 10975 ft | 308 kts | 148° |
| 2026-05-07 02:06 | -0.18650 | -78.41714 | 10547 ft | 300 kts | 137° |
| 2026-05-07 02:07 | -0.20144 | -78.40310 | 10185 ft | 290 kts | 129° |
| 2026-05-07 02:07 | -0.20610 | -78.36688 | 9456 ft | 268 kts | 62° |
| 2026-05-07 02:07 | -0.19337 | -78.35418 | 9029 ft | 256 kts | 25° |
| 2026-05-07 02:08 | -0.17652 | -78.35140 | 8669 ft | 242 kts | 356° |
| 2026-05-07 02:08 | -0.16030 | -78.35326 | 8406 ft | 226 kts | 355° |
| 2026-05-07 02:08 | -0.14524 | -78.35367 | 8111 ft | 211 kts | 1° |
| 2026-05-07 02:08 | -0.13123 | -78.35413 | 7904 ft | 187 kts | 359° |
| 2026-05-07 02:09 | -0.12103 | -78.35456 | 7835 ft | 123 kts | 356° |
| 2026-05-07 02:09 | -0.11237 | -78.35500 | 7900 ft | 146 kts | 359° |
| 2026-05-07 02:09 | -0.10121 | -78.35521 | 8381 ft | 173 kts | 0° |
| 2026-05-07 02:09 | -0.08848 | -78.35547 | 9044 ft | 190 kts | 360° |
| 2026-05-07 02:10 | -0.07500 | -78.35585 | 9786 ft | 197 kts | 0° |
| 2026-05-07 02:10 | -0.06139 | -78.35633 | 10469 ft | 196 kts | 0° |
| 2026-05-07 02:10 | -0.04768 | -78.35713 | 10928 ft | 199 kts | 358° |
| 2026-05-07 02:10 | -0.03368 | -78.35814 | 11319 ft | 205 kts | 358° |
| 2026-05-07 02:11 | -0.01915 | -78.35915 | 11738 ft | 212 kts | 358° |
| 2026-05-07 02:11 | -0.00428 | -78.36007 | 12106 ft | 217 kts | 358° |
| 2026-05-07 02:11 | 0.01105 | -78.36119 | 12447 ft | 225 kts | 358° |
| 2026-05-07 02:11 | 0.02633 | -78.36522 | 12835 ft | 235 kts | 331° |
| 2026-05-07 02:12 | 0.03790 | -78.37700 | 13235 ft | 245 kts | 298° |
| 2026-05-07 02:12 | 0.04197 | -78.39351 | 13642 ft | 248 kts | 265° |
| 2026-05-07 02:12 | 0.03811 | -78.40998 | 14000 ft | 249 kts | 247° |
| 2026-05-07 02:12 | 0.03165 | -78.42630 | 14374 ft | 250 kts | 242° |
| 2026-05-07 02:13 | 0.02089 | -78.43960 | 14734 ft | 246 kts | 210° |
| 2026-05-07 02:13 | 0.00524 | -78.44544 | 15102 ft | 240 kts | 181° |
| 2026-05-07 02:13 | -0.01148 | -78.44576 | 15508 ft | 241 kts | 174° |
| 2026-05-07 02:13 | -0.02827 | -78.44551 | 15871 ft | 245 kts | 182° |
| 2026-05-07 02:14 | -0.04439 | -78.45139 | 16245 ft | 254 kts | 213° |
| 2026-05-07 02:14 | -0.05595 | -78.46494 | 16639 ft | 263 kts | 244° |
| 2026-05-07 02:14 | -0.05920 | -78.48262 | 17034 ft | 267 kts | 278° |
| 2026-05-07 02:14 | -0.05254 | -78.49973 | 17421 ft | 267 kts | 312° |
| 2026-05-07 02:15 | -0.03850 | -78.51151 | 17829 ft | 265 kts | 329° |
| 2026-05-07 02:15 | -0.02304 | -78.52163 | 17949 ft | 265 kts | 336° |
| 2026-05-07 02:15 | -0.00569 | -78.52637 | 17977 ft | 257 kts | 3° |
| 2026-05-07 02:15 | 0.01151 | -78.52314 | 17938 ft | 250 kts | 29° |
| 2026-05-07 02:16 | 0.02553 | -78.51307 | 17941 ft | 245 kts | 52° |
| 2026-05-07 02:16 | 0.03390 | -78.49854 | 17939 ft | 242 kts | 75° |
| 2026-05-07 02:16 | 0.03558 | -78.48221 | 17939 ft | 241 kts | 98° |
| 2026-05-07 02:16 | 0.03159 | -78.46557 | 17949 ft | 257 kts | 105° |
| 2026-05-07 02:17 | 0.02656 | -78.44806 | 17941 ft | 266 kts | 106° |
| 2026-05-07 02:17 | 0.02136 | -78.43020 | 17941 ft | 268 kts | 106° |
| 2026-05-07 02:17 | 0.01610 | -78.41235 | 17940 ft | 269 kts | 107° |
| 2026-05-07 02:17 | 0.00741 | -78.39591 | 17983 ft | 270 kts | 129° |
| 2026-05-07 02:18 | -0.00740 | -78.38439 | 18039 ft | 275 kts | 153° |
| 2026-05-07 02:18 | -0.02605 | -78.38021 | 18032 ft | 280 kts | 178° |
| 2026-05-07 02:18 | -0.04518 | -78.38476 | 18036 ft | 288 kts | 205° |
| 2026-05-07 02:18 | -0.06053 | -78.39761 | 18038 ft | 293 kts | 233° |
| 2026-05-07 02:19 | -0.06852 | -78.41628 | 18039 ft | 297 kts | 262° |
| 2026-05-07 02:19 | -0.06702 | -78.43673 | 17976 ft | 297 kts | 289° |
| 2026-05-07 02:19 | -0.05981 | -78.45610 | 17979 ft | 298 kts | 293° |
| 2026-05-07 02:19 | -0.05231 | -78.47547 | 17979 ft | 299 kts | 292° |
| 2026-05-07 02:20 | -0.04492 | -78.49457 | 17975 ft | 299 kts | 292° |
| 2026-05-07 02:20 | -0.03743 | -78.51398 | 17976 ft | 299 kts | 292° |
| 2026-05-07 02:20 | -0.02994 | -78.53295 | 17967 ft | 284 kts | 297° |
| 2026-05-07 02:20 | -0.02132 | -78.55015 | 17972 ft | 273 kts | 298° |
| 2026-05-07 02:21 | -0.01278 | -78.56696 | 17975 ft | 270 kts | 302° |
| 2026-05-07 02:21 | -0.00017 | -78.58042 | 17930 ft | 264 kts | 331° |
| 2026-05-07 02:21 | 0.01695 | -78.58602 | 17946 ft | 258 kts | 1° |
| 2026-05-07 02:21 | 0.03410 | -78.58265 | 17942 ft | 250 kts | 31° |
| 2026-05-07 02:22 | 0.04676 | -78.57145 | 17944 ft | 243 kts | 61° |
| 2026-05-07 02:22 | 0.05168 | -78.55559 | 17949 ft | 241 kts | 91° |
| 2026-05-07 02:22 | 0.04755 | -78.53957 | 17946 ft | 242 kts | 120° |
| 2026-05-07 02:22 | 0.03548 | -78.52793 | 17958 ft | 248 kts | 149° |
| 2026-05-07 02:23 | 0.01884 | -78.52297 | 17943 ft | 252 kts | 167° |
| 2026-05-07 02:23 | 0.00151 | -78.52040 | 17934 ft | 252 kts | 169° |
| 2026-05-07 02:23 | -0.01589 | -78.51796 | 17970 ft | 253 kts | 169° |
| 2026-05-07 02:23 | -0.03338 | -78.51573 | 17972 ft | 253 kts | 171° |
| 2026-05-07 02:24 | -0.05096 | -78.51407 | 17981 ft | 254 kts | 172° |
| 2026-05-07 02:24 | -0.06866 | -78.51308 | 17978 ft | 255 kts | 174° |
| 2026-05-07 02:24 | -0.08638 | -78.51230 | 17984 ft | 255 kts | 174° |
| 2026-05-07 02:24 | -0.10412 | -78.51152 | 17981 ft | 255 kts | 174° |
| 2026-05-07 02:25 | -0.12182 | -78.51068 | 17976 ft | 255 kts | 174° |
| 2026-05-07 02:25 | -0.13953 | -78.50989 | 17978 ft | 255 kts | 174° |
| 2026-05-07 02:25 | -0.15709 | -78.50908 | 17824 ft | 256 kts | 174° |
| 2026-05-07 02:25 | -0.17475 | -78.50819 | 17458 ft | 253 kts | 174° |
| 2026-05-07 02:26 | -0.19224 | -78.50705 | 17089 ft | 250 kts | 172° |
| 2026-05-07 02:26 | -0.20945 | -78.50575 | 16728 ft | 247 kts | 173° |
| 2026-05-07 02:26 | -0.22652 | -78.50438 | 16361 ft | 245 kts | 172° |
| 2026-05-07 02:26 | -0.24335 | -78.50262 | 16005 ft | 242 kts | 169° |
| 2026-05-07 02:27 | -0.26001 | -78.50042 | 15655 ft | 241 kts | 169° |
| 2026-05-07 02:27 | -0.27650 | -78.49826 | 15304 ft | 238 kts | 169° |
| 2026-05-07 02:27 | -0.29264 | -78.49613 | 14958 ft | 229 kts | 169° |
| 2026-05-07 02:27 | -0.30818 | -78.49410 | 14663 ft | 222 kts | 169° |
| 2026-05-07 02:28 | -0.32325 | -78.49202 | 14338 ft | 215 kts | 169° |
| 2026-05-07 02:28 | -0.33772 | -78.49002 | 14003 ft | 205 kts | 169° |
| 2026-05-07 02:28 | -0.35161 | -78.48800 | 13653 ft | 198 kts | 170° |
| 2026-05-07 02:28 | -0.36447 | -78.48413 | 13330 ft | 191 kts | 150° |
| 2026-05-07 02:29 | -0.37587 | -78.47747 | 13057 ft | 190 kts | 147° |
| 2026-05-07 02:29 | -0.38701 | -78.47016 | 12807 ft | 193 kts | 144° |
| 2026-05-07 02:29 | -0.39823 | -78.46267 | 12584 ft | 195 kts | 145° |
| 2026-05-07 02:29 | -0.40951 | -78.45505 | 12379 ft | 196 kts | 144° |
| 2026-05-07 02:30 | -0.41992 | -78.44640 | 12163 ft | 194 kts | 136° |
| 2026-05-07 02:30 | -0.42921 | -78.43688 | 11932 ft | 189 kts | 123° |
| 2026-05-07 02:30 | -0.43256 | -78.42436 | 11726 ft | 189 kts | 91° |
| 2026-05-07 02:30 | -0.43168 | -78.41127 | 11507 ft | 189 kts | 84° |
| 2026-05-07 02:31 | -0.42761 | -78.39886 | 11319 ft | 190 kts | 66° |
| 2026-05-07 02:31 | -0.41932 | -78.38862 | 11162 ft | 192 kts | 41° |
| 2026-05-07 02:31 | -0.40815 | -78.38133 | 10967 ft | 193 kts | 27° |
| 2026-05-07 02:31 | -0.39557 | -78.37669 | 10794 ft | 193 kts | 20° |
| 2026-05-07 02:32 | -0.38298 | -78.37222 | 10620 ft | 191 kts | 21° |
| 2026-05-07 02:32 | -0.37048 | -78.36773 | 10550 ft | 190 kts | 21° |
| 2026-05-07 02:32 | -0.35796 | -78.36337 | 10550 ft | 191 kts | 22° |
| 2026-05-07 02:32 | -0.34538 | -78.35903 | 10548 ft | 191 kts | 19° |
| 2026-05-07 02:33 | -0.33271 | -78.35474 | 10552 ft | 192 kts | 19° |
| 2026-05-07 02:33 | -0.32003 | -78.35055 | 10551 ft | 191 kts | 20° |
| 2026-05-07 02:33 | -0.30810 | -78.34693 | 10552 ft | 169 kts | 17° |
| 2026-05-07 02:33 | -0.29674 | -78.34718 | 10530 ft | 161 kts | 356° |
| 2026-05-07 02:34 | -0.28581 | -78.34760 | 10531 ft | 155 kts | 0° |
| 2026-05-07 02:34 | -0.27515 | -78.34800 | 10527 ft | 153 kts | 0° |
| 2026-05-07 02:34 | -0.26449 | -78.34843 | 10418 ft | 153 kts | 0° |
| 2026-05-07 02:34 | -0.25389 | -78.34888 | 10249 ft | 152 kts | 358° |
| 2026-05-07 02:35 | -0.24336 | -78.34932 | 10052 ft | 151 kts | 359° |
| 2026-05-07 02:35 | -0.23289 | -78.34977 | 9835 ft | 150 kts | 359° |
| 2026-05-07 02:35 | -0.22256 | -78.35021 | 9619 ft | 151 kts | 359° |
| 2026-05-07 02:35 | -0.21207 | -78.35065 | 9405 ft | 151 kts | 360° |
| 2026-05-07 02:36 | -0.20158 | -78.35110 | 9188 ft | 151 kts | 0° |
| 2026-05-07 02:36 | -0.19110 | -78.35154 | 8949 ft | 151 kts | 1° |
| 2026-05-07 02:36 | -0.18072 | -78.35200 | 8757 ft | 149 kts | 359° |
| 2026-05-07 02:36 | -0.17045 | -78.35245 | 8528 ft | 146 kts | 359° |
| 2026-05-07 02:37 | -0.16039 | -78.35290 | 8381 ft | 146 kts | 359° |
| 2026-05-07 02:37 | -0.15043 | -78.35328 | 8167 ft | 142 kts | 359° |
| 2026-05-07 02:37 | -0.14065 | -78.35376 | 7948 ft | 139 kts | 358° |
| 2026-05-07 02:37 | -0.13134 | -78.35414 | 7881 ft | 120 kts | 357° |
| 2026-05-07 02:38 | -0.12473 | -78.35442 | 7850 ft | 70 kts | 358° |
| 2026-05-07 02:38 | -0.12127 | -78.35455 | 7836 ft | 41 kts | 358° |
| 2026-05-07 02:38 | -0.11841 | -78.35469 | 7827 ft | 41 kts | 352° |
| 2026-05-07 02:38 | -0.11613 | -78.35599 | 7822 ft | 24 kts | 298° |
| 2026-05-07 02:39 | -0.11679 | -78.35643 | 7823 ft | 13 kts | 178° |
| 2026-05-07 02:39 | -0.11770 | -78.35639 | 7825 ft | 13 kts | 177° |
| 2026-05-07 02:39 | -0.11862 | -78.35635 | 7823 ft | 13 kts | 178° |
| 2026-05-07 02:39 | -0.11924 | -78.35633 | 7829 ft | 13 kts | 178° |
| 2026-05-07 02:40 | -0.12016 | -78.35630 | 7832 ft | 13 kts | 177° |
| 2026-05-07 02:40 | -0.12100 | -78.35626 | 7835 ft | 11 kts | 177° |
| 2026-05-07 02:40 | -0.12172 | -78.35623 | 7839 ft | 10 kts | 178° |
| 2026-05-07 02:40 | -0.12237 | -78.35621 | 7841 ft | 9 kts | 178° |
| 2026-05-07 02:41 | -0.12304 | -78.35618 | 7843 ft | 12 kts | 177° |
| 2026-05-07 02:41 | -0.12358 | -78.35686 | 7843 ft | 19 kts | 265° |
| 2026-05-07 02:41 | -0.12365 | -78.35820 | 7839 ft | 18 kts | 276° |
| 2026-05-07 02:41 | -0.12369 | -78.35928 | 7842 ft | 8 kts | 267° |
| 2026-05-07 02:42 | -0.12370 | -78.35932 | 7842 ft | 0 kts | 267° |